Time;durP1;ratioP1;P1;durP2;ratioP2;P2;SDS_P1;SDS_P2;PMS_P1;PMS_P2;Temp;Humidity;BMP_temperature;BMP_pressure;BME280_temperature;BME280_humidity;BME280_pressure;Samples;Min_cycle;Max_cycle;Signal;HPM_P1;HPM_P2
2024/01/08 00:09:07;;;;;;;;;;;-0.40;99.90;;;;;;6756865;87;20054;-77
2024/01/08 00:19:07;;;;;;;;;;;-0.50;99.90;;;;;;6766282;87;20059;-78
2024/01/08 00:29:08;;;;;;;;;;;-0.40;99.90;;;;;;6770067;87;20077;-78
2024/01/08 00:39:11;;;;;;;;;;;-0.50;99.90;;;;;;6759263;87;20058;-77
2024/01/08 00:49:12;;;;;;;;;;;-0.40;99.90;;;;;;6755712;87;20071;-76
2024/01/08 00:59:12;;;;;;;;;;;-0.40;99.90;;;;;;6758400;87;20050;-77
2024/01/08 01:09:13;;;;;;;;;;;-0.40;99.90;;;;;;6753628;87;20053;-78
2024/01/08 01:19:13;;;;;;;;;;;-0.50;99.90;;;;;;6754761;87;20054;-77
2024/01/08 01:29:14;;;;;;;;;;;-0.50;99.90;;;;;;6754850;87;20086;-77
2024/01/08 01:39:15;;;;;;;;;;;-0.50;99.90;;;;;;6758006;87;20058;-77
2024/01/08 01:49:16;;;;;;;;;;;-0.40;99.90;;;;;;6763660;87;20065;-78
2024/01/08 01:59:17;;;;;;;;;;;-0.40;99.90;;;;;;6761407;87;20058;-78
2024/01/08 02:09:18;;;;;;;;;;;-0.40;99.90;;;;;;6767382;87;20077;-78
2024/01/08 02:19:18;;;;;;;;;;;-0.40;99.90;;;;;;6755695;87;20188;-77
2024/01/08 02:29:21;;;;;;;;;;;-0.40;99.90;;;;;;6762525;87;20212;-77
2024/01/08 02:39:21;;;;;;;;;;;-0.40;99.90;;;;;;6762866;87;20098;-77
2024/01/08 02:49:22;;;;;;;;;;;-0.40;99.90;;;;;;6774139;87;20061;-79
2024/01/08 02:59:23;;;;;;;;;;;-0.40;99.90;;;;;;6771846;87;20182;-78
2024/01/08 03:09:23;;;;;;;;;;;-0.40;99.90;;;;;;6771866;87;20053;-78
2024/01/08 03:19:23;;;;;;;;;;;-0.50;99.90;;;;;;6768845;87;20076;-78
2024/01/08 03:29:24;;;;;;;;;;;-0.50;99.90;;;;;;6769150;87;20068;-78
2024/01/08 03:39:25;;;;;;;;;;;-0.50;99.90;;;;;;6763755;87;20078;-78
2024/01/08 03:49:26;;;;;;;;;;;-0.70;99.90;;;;;;6725490;77;20486;-77
2024/01/08 03:59:26;;;;;;;;;;;-0.70;99.90;;;;;;6720270;88;20072;-78
2024/01/08 04:09:27;;;;;;;;;;;-0.80;99.90;;;;;;6715520;88;20067;-78
2024/01/08 04:19:27;;;;;;;;;;;-0.80;99.90;;;;;;6719277;88;20096;-77
2024/01/08 04:29:28;;;;;;;;;;;-0.90;99.90;;;;;;6718530;88;20082;-78
2024/01/08 04:39:28;;;;;;;;;;;-1.00;99.90;;;;;;6718141;88;20055;-78
2024/01/08 04:49:29;;;;;;;;;;;-1.00;99.90;;;;;;6733260;88;20496;-77
2024/01/08 04:59:29;;;;;;;;;;;-1.10;99.90;;;;;;6734684;88;20054;-78
2024/01/08 05:09:30;;;;;;;;;;;-1.20;99.90;;;;;;6734953;88;20221;-78
2024/01/08 05:19:30;;;;;;;;;;;-1.10;99.90;;;;;;6734916;88;20079;-77
2024/01/08 05:29:31;;;;;;;;;;;-1.10;99.90;;;;;;6731789;88;20074;-77
2024/01/08 05:39:31;;;;;;;;;;;-1.10;99.90;;;;;;6734587;88;20075;-79
2024/01/08 05:49:32;;;;;;;;;;;-1.20;99.90;;;;;;6733848;88;20057;-78
2024/01/08 05:59:33;;;;;;;;;;;-1.20;99.90;;;;;;6734891;88;20058;-77
2024/01/08 06:09:35;;;;;;;;;;;-1.20;99.90;;;;;;6732854;88;20164;-78
2024/01/08 06:19:35;;;;;;;;;;;-1.40;99.90;;;;;;6731773;88;20071;-78
2024/01/08 06:29:35;;;;;;;;;;;-1.40;99.90;;;;;;6728662;88;20111;-78
2024/01/08 06:39:38;;;;;;;;;;;-1.40;99.90;;;;;;6730801;88;20121;-78
2024/01/08 06:49:38;;;;;;;;;;;-1.30;99.90;;;;;;6733068;88;20068;-78
2024/01/08 06:59:39;;;;;;;;;;;-1.40;99.90;;;;;;6734410;88;20147;-78
2024/01/08 07:09:39;;;;;;;;;;;-1.40;99.90;;;;;;6736633;88;20234;-78
2024/01/08 07:19:39;;;;;;;;;;;-1.30;99.90;;;;;;6736972;88;20061;-78
2024/01/08 07:29:40;;;;;;;;;;;-1.30;99.90;;;;;;6737564;88;20058;-78
2024/01/08 07:39:40;;;;;;;;;;;-1.30;99.90;;;;;;6741733;88;20100;-79
2024/01/08 07:49:41;;;;;;;;;;;-1.20;99.90;;;;;;6741606;88;20083;-79
2024/01/08 07:59:41;;;;;;;;;;;-1.20;99.90;;;;;;6735666;88;20061;-79
2024/01/08 08:09:42;;;;;;;;;;;-1.10;99.90;;;;;;6729569;88;20069;-79
2024/01/08 08:19:43;;;;;;;;;;;-0.90;99.90;;;;;;6738703;88;20194;-79
2024/01/08 08:29:45;;;;;;;;;;;-0.90;99.90;;;;;;6736768;88;20128;-80
2024/01/08 08:39:45;;;;;;;;;;;-0.90;99.90;;;;;;6741729;88;20077;-80
2024/01/08 08:49:46;;;;;;;;;;;-0.80;99.90;;;;;;6739596;88;20146;-78
2024/01/08 08:59:46;;;;;;;;;;;-0.70;99.90;;;;;;6750015;88;20043;-78
2024/01/08 09:09:47;;;;;;;;;;;-0.70;99.90;;;;;;6754140;88;20034;-78
2024/01/08 09:19:49;;;;;;;;;;;-0.80;99.90;;;;;;6754694;88;20096;-78
2024/01/08 09:29:50;;;;;;;;;;;-0.80;99.90;;;;;;6755578;88;20627;-79
2024/01/08 09:39:50;;;;;;;;;;;-0.50;99.90;;;;;;6751077;88;20422;-78
2024/01/08 09:49:51;;;;;;;;;;;-0.40;99.90;;;;;;6732551;77;20074;-76
2024/01/08 09:59:51;;;;;;;;;;;-0.50;99.90;;;;;;6700922;88;20060;-79
2024/01/08 10:09:52;;;;;;;;;;;-0.30;99.90;;;;;;6714451;88;20050;-77
2024/01/08 10:20:04;;;;;;;;;;;-0.40;99.90;;;;;;6714551;88;20591;-77
2024/01/08 10:30:05;;;;;;;;;;;-0.40;99.90;;;;;;6707833;88;20048;-76
2024/01/08 10:40:08;;;;;;;;;;;-0.20;99.90;;;;;;6706732;88;20060;-77
2024/01/08 10:50:10;;;;;;;;;;;-0.20;99.90;;;;;;6703333;88;20494;-77
2024/01/08 11:00:12;;;;;;;;;;;-0.10;99.90;;;;;;6711914;88;20105;-76
2024/01/08 11:10:14;;;;;;;;;;;0.90;99.90;;;;;;6706171;88;20095;-76
2024/01/08 11:20:33;;;;;;;;;;;2.40;99.90;;;;;;6712860;88;20085;-76
2024/01/08 11:30:34;;;;;;;;;;;1.70;99.90;;;;;;6716892;88;20058;-75
2024/01/08 11:40:34;;;;;;;;;;;2.30;99.90;;;;;;6711553;88;20464;-75
2024/01/08 11:50:35;;;;;;;;;;;2.80;99.90;;;;;;6706238;88;20067;-75
2024/01/08 12:00:36;;;;;;;;;;;3.50;99.60;;;;;;6710071;88;20083;-75
2024/01/08 12:10:37;;;;;;;;;;;3.10;99.90;;;;;;6706250;88;20068;-76
2024/01/08 12:20:38;;;;;;;;;;;3.50;98.90;;;;;;6712154;88;20069;-75
2024/01/08 12:30:39;;;;;;;;;;;3.40;98.40;;;;;;6707818;88;20156;-76
2024/01/08 12:40:39;;;;;;;;;;;3.90;97.50;;;;;;6709554;88;20874;-75
2024/01/08 12:50:40;;;;;;;;;;;4.20;96.90;;;;;;6717029;88;20063;-75
2024/01/08 13:00:41;;;;;;;;;;;4.00;95.90;;;;;;6710225;88;20073;-76
2024/01/08 13:10:41;;;;;;;;;;;4.30;94.70;;;;;;6712041;88;21017;-76
2024/01/08 13:20:41;;;;;;;;;;;5.30;93.80;;;;;;6703748;88;20073;-77
2024/01/08 13:30:42;;;;;;;;;;;5.80;92.90;;;;;;6699280;88;20963;-76
2024/01/08 13:40:43;;;;;;;;;;;5.20;92.40;;;;;;6701390;88;20094;-76
2024/01/08 13:50:43;;;;;;;;;;;4.90;92.60;;;;;;6707977;88;20095;-76
2024/01/08 14:00:44;;;;;;;;;;;4.80;92.80;;;;;;6713820;88;20627;-76
2024/01/08 14:10:44;;;;;;;;;;;3.70;93.00;;;;;;6706399;88;20101;-76
2024/01/08 14:20:45;;;;;;;;;;;3.50;93.80;;;;;;6719909;88;20067;-76
2024/01/08 14:30:45;;;;;;;;;;;2.40;94.10;;;;;;6717095;88;20078;-75
2024/01/08 14:40:46;;;;;;;;;;;2.00;94.80;;;;;;6704570;88;20055;-76
2024/01/08 14:50:46;;;;;;;;;;;1.60;95.90;;;;;;6708156;88;20063;-75
2024/01/08 15:00:47;;;;;;;;;;;0.90;96.70;;;;;;6704376;88;20529;-75
2024/01/08 15:10:48;;;;;;;;;;;0.70;97.00;;;;;;6707548;88;20607;-75
2024/01/08 15:20:48;;;;;;;;;;;0.50;97.30;;;;;;6702641;88;20100;-76
2024/01/08 15:30:49;;;;;;;;;;;0.30;98.90;;;;;;6704747;88;20191;-76
2024/01/08 15:40:49;;;;;;;;;;;0.10;98.80;;;;;;6707322;88;20064;-76
2024/01/08 16:01:32;;;;;;;;;;;-0.50;98.00;;;;;;6712223;88;20503;-78
2024/01/08 16:11:32;;;;;;;;;;;-0.70;98.30;;;;;;6681438;89;20084;-78
2024/01/08 16:21:33;;;;;;;;;;;-0.80;99.10;;;;;;6684854;89;20067;-81
2024/01/08 16:31:33;;;;;;;;;;;-0.90;99.10;;;;;;6687297;89;20052;-80
2024/01/08 16:51:40;;;;;;;;;;;-1.20;99.30;;;;;;6763551;87;20084;-79
2024/01/08 17:01:41;;;;;;;;;;;-1.40;99.90;;;;;;6760808;87;20076;-81
2024/01/08 17:11:42;;;;;;;;;;;-1.60;99.70;;;;;;6728922;88;20051;-78
2024/01/08 17:21:43;;;;;;;;;;;-1.70;99.30;;;;;;6742527;88;20064;-78
2024/01/08 17:31:43;;;;;;;;;;;-1.80;99.70;;;;;;6741349;88;20509;-78
2024/01/08 17:41:44;;;;;;;;;;;-1.90;99.50;;;;;;6745332;88;20080;-80
2024/01/08 17:51:44;;;;;;;;;;;-2.00;99.20;;;;;;6749959;88;20083;-78
2024/01/08 18:01:45;;;;;;;;;;;-2.10;99.90;;;;;;6743270;88;20537;-77
2024/01/08 18:11:45;;;;;;;;;;;-2.10;99.90;;;;;;6735549;88;20094;-77
2024/01/08 18:21:45;;;;;;;;;;;-2.20;99.90;;;;;;6744647;88;20070;-78
2024/01/08 18:31:46;;;;;;;;;;;-2.10;99.70;;;;;;6744630;88;20586;-78
2024/01/08 18:41:48;;;;;;;;;;;-2.30;99.90;;;;;;6744802;88;20085;-78
2024/01/08 18:51:48;;;;;;;;;;;-2.40;99.90;;;;;;6732947;88;20080;-77
2024/01/08 19:01:49;;;;;;;;;;;-2.50;99.90;;;;;;6739508;88;20663;-76
2024/01/08 19:11:51;;;;;;;;;;;-2.50;99.90;;;;;;6735547;88;20061;-81
2024/01/08 19:21:52;;;;;;;;;;;-2.50;98.90;;;;;;6741381;88;20058;-79
2024/01/08 19:31:53;;;;;;;;;;;-2.70;99.90;;;;;;6739945;88;20071;-79
2024/01/08 19:41:53;;;;;;;;;;;-2.70;99.90;;;;;;6740751;88;20172;-77
2024/01/08 19:51:54;;;;;;;;;;;-2.60;99.00;;;;;;6740356;88;20167;-76
2024/01/08 20:01:57;;;;;;;;;;;-2.60;98.90;;;;;;6739023;88;20559;-79
2024/01/08 20:11:58;;;;;;;;;;;-2.70;99.70;;;;;;6737745;88;20065;-78
2024/01/08 20:21:59;;;;;;;;;;;-2.80;99.90;;;;;;6737611;88;20079;-78
2024/01/08 20:31:59;;;;;;;;;;;-2.90;99.90;;;;;;6741639;88;20057;-78
2024/01/08 20:41:59;;;;;;;;;;;-3.00;99.90;;;;;;6738134;88;20149;-79
2024/01/08 20:52:00;;;;;;;;;;;-3.00;99.90;;;;;;6740697;88;20152;-78
2024/01/08 21:02:00;;;;;;;;;;;-3.10;99.90;;;;;;6743025;88;20107;-78
2024/01/08 21:12:01;;;;;;;;;;;-3.10;99.90;;;;;;6738323;88;20075;-78
2024/01/08 21:22:03;;;;;;;;;;;-3.10;99.90;;;;;;6736875;88;20230;-79
2024/01/08 21:32:03;;;;;;;;;;;-3.30;99.90;;;;;;6719950;88;20106;-77
2024/01/08 21:42:04;;;;;;;;;;;-3.40;99.90;;;;;;6719609;88;20119;-77
2024/01/08 21:52:04;;;;;;;;;;;-3.40;99.90;;;;;;6749866;76;20050;-75
2024/01/08 22:02:05;;;;;;;;;;;-3.50;99.90;;;;;;6762559;87;20062;-76
2024/01/08 22:12:05;;;;;;;;;;;-3.60;99.90;;;;;;6775273;87;20075;-76
2024/01/08 22:22:06;;;;;;;;;;;-3.70;99.90;;;;;;6771351;87;20078;-75
2024/01/08 22:32:06;;;;;;;;;;;-3.60;99.90;;;;;;6766917;87;20073;-77
2024/01/08 22:42:07;;;;;;;;;;;-3.80;99.90;;;;;;6761005;87;20143;-76
2024/01/08 22:52:07;;;;;;;;;;;-3.80;99.90;;;;;;6764417;87;22870;-75
2024/01/08 23:02:08;;;;;;;;;;;-3.90;99.90;;;;;;6772592;87;20053;-76
2024/01/08 23:12:08;;;;;;;;;;;-3.90;99.90;;;;;;6778915;87;20074;-76
2024/01/08 23:22:08;;;;;;;;;;;-3.90;99.90;;;;;;6768461;87;20070;-76
2024/01/08 23:32:09;;;;;;;;;;;-3.90;99.90;;;;;;6769550;87;20061;-76
2024/01/08 23:42:11;;;;;;;;;;;-4.10;99.90;;;;;;6765090;87;20519;-76
2024/01/08 23:52:11;;;;;;;;;;;-4.00;99.90;;;;;;6766460;87;20589;-76
